Terminal Aerodrome Forecast
Issued by NWS Pueblo, CO

Home | Current Version | Previous Version | Text Only | Print | Product List | Glossary On
Versions: 1 2 3 4 5 6 7 8 9 10 11 12 13 14 15 16 17 18 19 20 21 22 23 24 25 26 27 28 29 30 31 32 33 34 35 36 37 38 39 40 41 42 43 44 45 46 47 48 49 50
033
FTUS45 KPUB 241132
TAFCOS
TAF
KCOS 241132Z 2412/2512 34007KT P6SM VCSH BKN012 OVC020
      TEMPO 2412/2415 5SM BR
     FM241500 12007KT P6SM BKN015
     FM241700 13010KT P6SM BKN020
     FM242000 10009KT P6SM VCSH SCT020 BKN050
     FM250300 01010KT P6SM VCSH BKN025=

USA.gov is the U.S. government's official web portal to all federal, state and local government web resources and services.